createdAt,value
2018-07-22T00:01:01.828Z,19.23
2018-07-22T00:03:31.463Z,18.93
2018-07-22T00:05:59.958Z,19.27
2018-07-22T00:08:28.237Z,20.20
2018-07-22T00:10:56.867Z,18.87
2018-07-22T00:13:25.267Z,19.70
2018-07-22T00:15:53.390Z,20.72
2018-07-22T00:18:21.842Z,19.27
2018-07-22T00:20:51.064Z,19.17
2018-07-22T00:23:19.136Z,18.77
2018-07-22T00:25:47.435Z,19.60
2018-07-22T00:28:15.850Z,19.40
2018-07-22T00:30:45.336Z,19.47
2018-07-22T00:33:14.568Z,19.07
2018-07-22T00:35:42.992Z,18.33
2018-07-22T00:38:11.412Z,19.83
2018-07-22T00:40:39.913Z,20.30
2018-07-22T00:43:10.139Z,20.90
2018-07-22T00:45:38.225Z,19.43
2018-07-22T00:48:07.277Z,20.80
2018-07-22T00:50:35.427Z,19.40
2018-07-22T00:53:03.763Z,19.00
2018-07-22T00:55:32.155Z,20.20
2018-07-22T00:58:00.545Z,19.10
2018-07-22T01:00:28.513Z,20.77
2018-07-22T01:02:56.892Z,19.33
2018-07-22T01:05:24.829Z,17.73
2018-07-22T01:07:53.011Z,19.80
2018-07-22T01:10:21.424Z,20.85
2018-07-22T01:12:49.800Z,20.90
2018-07-22T01:15:19.218Z,20.30
2018-07-22T01:17:48.036Z,18.97
2018-07-22T01:20:16.250Z,18.70
2018-07-22T01:22:44.557Z,21.07
2018-07-22T01:25:13.030Z,19.97
2018-07-22T01:27:41.435Z,19.07
2018-07-22T01:30:10.550Z,18.67
2018-07-22T01:32:39.195Z,19.83
2018-07-22T01:35:07.693Z,18.40
2018-07-22T01:37:35.941Z,17.57
2018-07-22T01:40:04.447Z,17.57
2018-07-22T01:42:32.665Z,18.17
2018-07-22T01:45:01.029Z,18.03
2018-07-22T01:47:29.241Z,17.40
2018-07-22T01:49:57.443Z,17.50
2018-07-22T01:52:25.417Z,17.53
2018-07-22T01:54:53.677Z,17.83
2018-07-22T01:57:23.155Z,18.83
2018-07-22T01:59:51.758Z,18.00
2018-07-22T02:02:19.648Z,19.30
2018-07-22T02:04:47.858Z,18.90
2018-07-22T02:07:16.254Z,18.90
2018-07-22T02:09:44.652Z,19.87
2018-07-22T02:12:13.742Z,19.37
2018-07-22T02:14:41.687Z,19.37
2018-07-22T02:17:09.960Z,20.10
2018-07-22T02:19:38.254Z,19.23
2018-07-22T02:22:06.636Z,19.57
2018-07-22T02:24:34.725Z,21.07
2018-07-22T02:27:03.037Z,20.17
2018-07-22T02:29:31.178Z,20.30
2018-07-22T02:31:59.415Z,19.70
2018-07-22T02:34:27.733Z,19.17
2018-07-22T02:36:56.065Z,19.20
2018-07-22T02:39:24.304Z,19.13
2018-07-22T02:41:52.606Z,19.07
2018-07-22T02:44:20.791Z,19.57
2018-07-22T02:46:49.194Z,19.57
2018-07-22T02:49:17.607Z,20.13
2018-07-22T02:51:45.700Z,18.83
2018-07-22T02:54:14.108Z,19.47
2018-07-22T02:56:42.610Z,19.97
2018-07-22T02:59:10.714Z,19.33
2018-07-22T03:01:39.072Z,18.80
2018-07-22T03:04:07.971Z,19.00
2018-07-22T03:06:36.272Z,20.80
2018-07-22T03:09:06.562Z,18.90
2018-07-22T03:11:34.934Z,20.53
2018-07-22T03:14:03.043Z,18.90
2018-07-22T03:16:31.431Z,19.30
2018-07-22T03:18:59.505Z,20.30
2018-07-22T03:21:27.743Z,20.23
2018-07-22T03:23:56.235Z,19.80
2018-07-22T03:26:24.521Z,20.93
2018-07-22T03:28:52.627Z,20.07
2018-07-22T03:31:20.889Z,20.57
2018-07-22T03:33:48.837Z,19.73
2018-07-22T03:36:17.109Z,21.53
2018-07-22T03:38:45.379Z,19.10
2018-07-22T03:41:13.431Z,20.63
2018-07-22T03:43:41.682Z,20.80
2018-07-22T03:46:09.686Z,21.10
2018-07-22T03:48:38.065Z,23.15
2018-07-22T03:51:06.369Z,20.30
2018-07-22T03:53:34.448Z,21.37
2018-07-22T03:56:02.965Z,19.70
2018-07-22T03:58:31.239Z,20.90
2018-07-22T04:00:59.658Z,19.20
2018-07-22T04:03:27.754Z,21.50
2018-07-22T04:05:55.854Z,20.33
2018-07-22T04:08:25.276Z,20.80
2018-07-22T04:10:53.560Z,20.53
2018-07-22T04:13:21.474Z,20.40
2018-07-22T04:15:49.560Z,21.20
2018-07-22T04:18:17.718Z,20.63
2018-07-22T04:20:46.116Z,19.20
2018-07-22T04:23:18.265Z,19.60
2018-07-22T04:25:46.508Z,21.10
2018-07-22T04:28:14.929Z,19.97
2018-07-22T04:30:43.097Z,20.70
2018-07-22T04:33:12.248Z,20.20
2018-07-22T04:35:41.053Z,20.23
2018-07-22T04:38:09.555Z,19.50
2018-07-22T04:40:37.749Z,20.00
2018-07-22T04:43:05.995Z,19.73
2018-07-22T04:45:34.195Z,19.70
2018-07-22T04:48:02.483Z,20.10
2018-07-22T04:50:30.808Z,19.37
2018-07-22T04:52:58.991Z,20.40
2018-07-22T04:55:27.408Z,20.17
2018-07-22T04:57:55.728Z,18.63
2018-07-22T05:00:24.353Z,19.70
2018-07-22T05:02:52.523Z,18.90
2018-07-22T05:05:20.511Z,19.43
2018-07-22T05:07:48.590Z,19.17
2018-07-22T05:10:17.121Z,18.67
2018-07-22T05:12:45.497Z,17.67
2018-07-22T05:15:13.482Z,19.40
2018-07-22T05:17:41.781Z,18.43
2018-07-22T05:20:10.089Z,17.80
2018-07-22T05:22:39.029Z,17.17
2018-07-22T05:25:07.319Z,17.60
2018-07-22T05:27:35.487Z,18.00
2018-07-22T05:30:04.088Z,17.53
2018-07-22T05:32:37.710Z,17.60
2018-07-22T05:35:05.693Z,17.70
2018-07-22T05:37:33.702Z,17.20
2018-07-22T05:40:02.589Z,17.95
2018-07-22T05:42:30.972Z,17.90
2018-07-22T05:44:59.101Z,17.87
2018-07-22T05:47:27.102Z,19.02
2018-07-22T05:49:55.294Z,18.17
2018-07-22T05:52:23.579Z,18.57
2018-07-22T05:54:51.490Z,14.90
2018-07-22T05:57:20.158Z,17.10
2018-07-22T05:59:48.558Z,16.00
2018-07-22T06:02:17.402Z,15.70
2018-07-22T06:04:45.674Z,15.77
2018-07-22T06:07:13.761Z,17.52
2018-07-22T06:09:41.932Z,16.30
2018-07-22T06:12:10.540Z,15.30
2018-07-22T06:14:38.765Z,16.70
2018-07-22T06:17:06.973Z,15.53
2018-07-22T06:22:09.179Z,14.60
2018-07-22T06:24:37.829Z,14.70
2018-07-22T06:27:09.663Z,15.60
2018-07-22T06:29:37.968Z,16.77
2018-07-22T06:32:06.164Z,14.57
2018-07-22T06:34:34.548Z,14.73
2018-07-22T06:37:02.878Z,14.93
2018-07-22T06:39:31.073Z,15.55
2018-07-22T06:41:59.447Z,15.20
2018-07-22T06:44:27.970Z,14.43
2018-07-22T06:46:56.351Z,14.70
2018-07-22T06:49:24.772Z,13.50
2018-07-22T06:51:53.294Z,15.30
2018-07-22T06:54:21.446Z,15.50
2018-07-22T06:56:49.732Z,14.77
2018-07-22T06:59:18.169Z,14.60
2018-07-22T07:01:46.922Z,16.45
2018-07-22T07:04:15.432Z,16.20
2018-07-22T07:06:43.762Z,16.17
2018-07-22T07:09:12.390Z,15.73
2018-07-22T07:11:40.977Z,15.20
2018-07-22T07:14:10.006Z,13.73
2018-07-22T07:16:39.542Z,14.00
2018-07-22T07:19:07.811Z,13.20
2018-07-22T07:21:36.209Z,13.60
2018-07-22T07:24:04.407Z,14.60
2018-07-22T07:26:33.313Z,16.07
2018-07-22T07:29:01.817Z,13.87
2018-07-22T07:31:30.193Z,13.70
2018-07-22T07:34:00.869Z,14.73
2018-07-22T07:36:29.282Z,15.43
2018-07-22T07:38:57.787Z,15.73
2018-07-22T07:41:26.294Z,14.60
2018-07-22T07:43:54.566Z,14.93
2018-07-22T07:46:22.634Z,12.90
2018-07-22T07:48:51.044Z,15.23
2018-07-22T07:51:19.356Z,13.97
2018-07-22T07:53:47.553Z,15.63
2018-07-22T07:56:15.745Z,15.30
2018-07-22T07:58:44.197Z,14.30
2018-07-22T08:01:14.596Z,15.37
2018-07-22T08:03:42.981Z,14.83
2018-07-22T08:06:10.861Z,14.77
2018-07-22T08:08:39.043Z,14.23
2018-07-22T08:11:07.697Z,16.10
2018-07-22T08:13:36.076Z,14.70
2018-07-22T08:16:04.288Z,14.00
2018-07-22T08:18:33.295Z,14.03
2018-07-22T08:21:01.664Z,15.90
2018-07-22T08:23:31.808Z,14.30
2018-07-22T08:26:00.044Z,16.07
2018-07-22T08:29:36.517Z,14.03
2018-07-22T08:32:05.919Z,14.00
2018-07-22T08:34:38.034Z,14.87
2018-07-22T08:37:08.035Z,13.87
2018-07-22T08:39:36.558Z,13.77
2018-07-22T08:42:06.162Z,14.60
2018-07-22T08:44:34.785Z,15.83
2018-07-22T08:47:03.099Z,16.25
2018-07-22T08:49:31.440Z,14.98
2018-07-22T08:51:59.772Z,14.73
2018-07-22T08:54:28.160Z,13.37
2018-07-22T08:56:56.601Z,15.20
2018-07-22T08:59:24.982Z,14.80
2018-07-22T09:01:54.423Z,14.63
2018-07-22T09:04:23.029Z,15.40
2018-07-22T09:06:51.427Z,16.37
2018-07-22T09:09:19.828Z,15.37
2018-07-22T09:11:48.320Z,14.23
2018-07-22T09:14:16.729Z,14.80
2018-07-22T09:16:48.497Z,13.80
2018-07-22T09:19:16.702Z,14.33
2018-07-22T09:21:44.677Z,13.93
2018-07-22T09:24:13.193Z,14.85
2018-07-22T09:26:43.743Z,15.90
2018-07-22T09:29:12.278Z,15.03
2018-07-22T09:31:40.739Z,15.10
2018-07-22T09:34:09.056Z,15.05
2018-07-22T09:36:38.814Z,15.27
2018-07-22T09:39:09.436Z,13.00
2018-07-22T09:41:37.920Z,14.90
2018-07-22T09:44:07.343Z,14.00
2018-07-22T09:46:35.522Z,13.97
2018-07-22T09:49:03.739Z,14.07
2018-07-22T09:51:49.826Z,12.50
2018-07-22T09:54:18.720Z,13.70
2018-07-22T09:56:47.273Z,13.67
2018-07-22T09:59:15.768Z,14.50
2018-07-22T10:01:44.327Z,14.13
2018-07-22T10:04:25.139Z,14.60
2018-07-22T10:06:54.449Z,14.60
2018-07-22T10:09:22.959Z,16.00
2018-07-22T10:11:51.351Z,16.37
2018-07-22T10:14:34.010Z,15.07
2018-07-22T10:17:02.229Z,15.00
2018-07-22T10:19:30.684Z,14.80
2018-07-22T10:21:59.567Z,13.83
2018-07-22T10:24:37.062Z,12.90
2018-07-22T10:27:05.474Z,14.17
2018-07-22T10:29:33.845Z,14.20
2018-07-22T10:32:02.640Z,14.83
2018-07-22T10:34:33.159Z,13.50
2018-07-22T10:37:02.747Z,14.17
2018-07-22T10:39:31.259Z,14.87
2018-07-22T10:41:59.602Z,15.03
2018-07-22T10:44:28.255Z,15.03
2018-07-22T10:46:56.581Z,14.47
2018-07-22T10:49:24.948Z,13.80
2018-07-22T10:51:53.348Z,14.53
2018-07-22T10:54:21.449Z,13.83
2018-07-22T10:56:49.895Z,15.30
2018-07-22T10:59:18.530Z,13.83
2018-07-22T11:01:50.432Z,14.00
2018-07-22T11:04:19.028Z,14.90
2018-07-22T11:06:47.325Z,14.80
2018-07-22T11:09:16.381Z,14.30
2018-07-22T11:11:58.759Z,15.20
2018-07-22T11:14:27.234Z,15.40
2018-07-22T11:16:55.455Z,13.57
2018-07-22T11:19:40.418Z,14.53
2018-07-22T11:22:08.616Z,14.10
2018-07-22T11:24:37.008Z,13.57
2018-07-22T11:27:05.857Z,14.77
2018-07-22T11:32:38.674Z,14.60
2018-07-22T11:35:07.534Z,15.10
2018-07-22T11:37:37.110Z,15.23
2018-07-22T11:40:05.745Z,15.27
2018-07-22T11:42:44.785Z,16.30
2018-07-22T11:45:13.364Z,15.30
2018-07-22T11:47:41.609Z,14.60
2018-07-22T11:50:27.446Z,15.10
2018-07-22T11:52:55.614Z,14.10
2018-07-22T11:55:24.084Z,14.60
2018-07-22T12:03:46.363Z,13.83
2018-07-22T12:06:14.527Z,13.93
2018-07-22T12:08:43.133Z,13.63
2018-07-22T12:11:18.174Z,14.03
2018-07-22T12:13:46.606Z,15.17
2018-07-22T12:16:15.772Z,14.27
2018-07-22T12:18:48.489Z,14.67
2018-07-22T12:21:16.499Z,14.83
2018-07-22T12:23:45.105Z,14.77
2018-07-22T12:26:31.690Z,14.40
2018-07-22T12:29:00.335Z,14.33
2018-07-22T12:31:28.622Z,14.10
2018-07-22T12:34:12.992Z,15.37
2018-07-22T12:36:41.281Z,15.77
2018-07-22T12:39:11.689Z,14.67
2018-07-22T12:41:39.588Z,13.57
2018-07-22T12:46:54.621Z,13.87
2018-07-22T12:49:22.996Z,13.67
2018-07-22T12:51:51.304Z,13.80
2018-07-22T12:54:19.818Z,14.13
2018-07-22T12:56:48.171Z,15.30
2018-07-22T12:59:17.102Z,14.55
2018-07-22T13:01:45.533Z,14.33
2018-07-22T13:04:16.064Z,14.83
2018-07-22T13:06:44.544Z,13.60
2018-07-22T13:09:12.665Z,14.20
2018-07-22T13:11:41.509Z,15.20
2018-07-22T13:14:09.964Z,13.58
2018-07-22T13:16:38.571Z,14.17
2018-07-22T13:19:06.999Z,13.43
2018-07-22T13:21:35.445Z,14.03
2018-07-22T13:24:03.549Z,14.10
2018-07-22T13:26:31.545Z,13.75
2018-07-22T13:28:59.932Z,14.40
2018-07-22T13:31:28.351Z,13.55
2018-07-22T13:33:56.731Z,12.98
2018-07-22T13:36:25.135Z,13.60
2018-07-22T13:38:54.265Z,13.32
2018-07-22T13:41:22.583Z,13.85
2018-07-22T13:43:51.055Z,14.38
2018-07-22T13:46:18.860Z,13.90
2018-07-22T13:48:47.156Z,13.75
2018-07-22T13:51:15.557Z,13.58
2018-07-22T13:53:44.062Z,13.22
2018-07-22T13:56:12.686Z,14.10
2018-07-22T13:58:41.060Z,13.10
2018-07-22T14:01:09.362Z,12.58
2018-07-22T14:03:38.590Z,12.73
2018-07-22T14:06:07.254Z,12.73
2018-07-22T14:08:35.683Z,12.43
2018-07-22T14:11:04.385Z,12.60
2018-07-22T14:13:32.872Z,12.90
2018-07-22T14:16:01.289Z,12.90
2018-07-22T14:18:29.793Z,13.08
2018-07-22T14:20:57.921Z,12.80
2018-07-22T14:23:26.073Z,12.40
2018-07-22T14:25:54.247Z,12.70
2018-07-22T14:28:23.321Z,12.45
2018-07-22T14:30:51.819Z,12.70
2018-07-22T14:33:20.287Z,11.88
2018-07-22T14:35:48.480Z,12.10
2018-07-22T14:38:16.762Z,12.03
2018-07-22T14:40:44.994Z,12.55
2018-07-22T14:43:13.260Z,12.43
2018-07-22T14:45:41.466Z,12.50
2018-07-22T14:48:09.765Z,12.15
2018-07-22T14:50:38.267Z,12.60
2018-07-22T14:53:06.854Z,11.95
2018-07-22T14:55:34.949Z,11.60
2018-07-22T14:58:03.765Z,12.03
2018-07-22T15:00:32.090Z,12.58
2018-07-22T15:03:00.349Z,12.30
2018-07-22T15:05:28.725Z,11.90
2018-07-22T15:07:57.528Z,12.05
2018-07-22T15:10:25.771Z,11.38
2018-07-22T15:12:54.640Z,11.40
2018-07-22T15:15:22.965Z,12.43
2018-07-22T15:17:51.276Z,12.30
2018-07-22T15:20:19.777Z,12.70
2018-07-22T15:22:48.350Z,12.13
2018-07-22T15:25:20.366Z,11.73
2018-07-22T15:27:48.455Z,12.15
2018-07-22T15:30:16.531Z,12.75
2018-07-22T15:32:45.194Z,12.20
2018-07-22T15:35:13.681Z,12.70
2018-07-22T15:37:42.057Z,10.82
2018-07-22T15:40:10.454Z,12.13
2018-07-22T15:42:38.871Z,11.78
2018-07-22T15:45:09.168Z,11.75
2018-07-22T15:47:37.702Z,11.90
2018-07-22T15:50:05.913Z,12.60
2018-07-22T15:52:38.269Z,12.80
2018-07-22T15:55:06.396Z,12.37
2018-07-22T15:57:34.671Z,12.63
2018-07-22T16:00:02.866Z,12.90
2018-07-22T16:02:31.503Z,12.30
2018-07-22T16:04:59.983Z,13.10
2018-07-22T16:07:28.372Z,12.00
2018-07-22T16:09:56.887Z,12.03
2018-07-22T16:12:25.884Z,12.40
2018-07-22T16:14:54.406Z,12.90
2018-07-22T16:17:22.909Z,11.90
2018-07-22T16:19:51.489Z,11.90
2018-07-22T16:22:27.545Z,12.33
2018-07-22T16:24:56.155Z,11.48
2018-07-22T16:27:24.449Z,12.10
2018-07-22T16:29:52.884Z,12.10
2018-07-22T16:32:24.637Z,12.43
2018-07-22T16:34:52.939Z,12.50
2018-07-22T16:37:21.352Z,12.95
2018-07-22T16:39:49.713Z,12.20
2018-07-22T16:42:17.843Z,11.95
2018-07-22T16:44:46.294Z,11.78
2018-07-22T16:47:14.711Z,12.43
2018-07-22T16:49:45.160Z,12.50
2018-07-22T16:52:13.588Z,12.30
2018-07-22T16:54:41.963Z,12.40
2018-07-22T16:57:29.709Z,13.10
2018-07-22T16:59:58.082Z,11.93
2018-07-22T17:02:26.613Z,12.30
2018-07-22T17:04:55.088Z,12.63
2018-07-22T17:07:37.728Z,12.35
2018-07-22T17:10:06.142Z,12.25
2018-07-22T17:12:34.536Z,12.50
2018-07-22T17:15:15.731Z,13.00
2018-07-22T17:17:43.933Z,13.80
2018-07-22T17:20:12.607Z,12.98
2018-07-22T17:22:50.883Z,12.98
2018-07-22T17:25:19.368Z,13.53
2018-07-22T17:27:47.736Z,13.50
2018-07-22T17:30:20.528Z,13.20
2018-07-22T17:32:49.207Z,12.93
2018-07-22T17:35:17.640Z,13.57
2018-07-22T17:37:46.142Z,13.13
2018-07-22T17:43:22.317Z,13.78
2018-07-22T17:45:50.723Z,13.43
2018-07-22T17:48:19.316Z,13.30
2018-07-22T17:50:59.310Z,13.03
2018-07-22T17:53:27.784Z,12.80
2018-07-22T17:55:56.277Z,13.80
2018-07-22T17:58:24.937Z,13.00
2018-07-22T18:03:56.158Z,13.85
2018-07-22T18:06:24.485Z,14.20
2018-07-22T18:08:52.864Z,13.13
2018-07-22T18:11:22.370Z,12.90
2018-07-22T18:14:01.235Z,14.10
2018-07-22T18:16:29.909Z,13.08
2018-07-22T18:18:58.614Z,13.08
2018-07-22T18:21:26.688Z,12.30
2018-07-22T18:23:54.903Z,13.10
2018-07-22T18:26:23.405Z,12.85
2018-07-22T18:28:51.869Z,12.28
2018-07-22T18:31:20.562Z,12.40
2018-07-22T18:33:49.220Z,12.73
2018-07-22T18:36:18.862Z,12.40
2018-07-22T18:38:47.336Z,12.43
2018-07-22T18:41:15.945Z,11.48
2018-07-22T18:43:44.749Z,12.43
2018-07-22T18:46:13.325Z,12.00
2018-07-22T18:48:41.745Z,12.65
2018-07-22T18:51:09.958Z,12.00
2018-07-22T18:53:38.575Z,13.70
2018-07-22T18:56:07.355Z,11.43
2018-07-22T18:58:35.567Z,13.00
2018-07-22T19:01:17.402Z,12.50
2018-07-22T19:03:45.765Z,12.40
2018-07-22T19:06:14.469Z,12.60
2018-07-22T19:08:42.939Z,12.60
2018-07-22T19:11:11.469Z,12.70
2018-07-22T19:13:40.179Z,12.60
2018-07-22T19:16:13.694Z,12.17
2018-07-22T19:18:42.467Z,12.10
2018-07-22T19:21:10.979Z,12.58
2018-07-22T19:23:39.753Z,13.20
2018-07-22T19:26:11.633Z,12.75
2018-07-22T19:28:40.168Z,12.85
2018-07-22T19:31:08.590Z,13.05
2018-07-22T19:33:37.108Z,12.68
2018-07-22T19:36:10.184Z,12.90
2018-07-22T19:38:38.769Z,13.50
2018-07-22T19:41:07.513Z,13.03
2018-07-22T19:43:36.101Z,13.20
2018-07-22T19:46:09.989Z,13.75
2018-07-22T19:48:39.655Z,13.80
2018-07-22T19:51:08.162Z,14.00
2018-07-22T19:53:37.513Z,14.40
2018-07-22T19:56:09.575Z,14.00
2018-07-22T19:58:38.385Z,18.67
2018-07-22T20:01:07.271Z,14.95
2018-07-22T20:03:36.675Z,15.10
2018-07-22T20:06:05.518Z,15.80
2018-07-22T20:08:34.982Z,17.17
2018-07-22T20:11:03.533Z,17.40
2018-07-22T20:13:31.636Z,17.07
2018-07-22T20:15:59.831Z,17.20
2018-07-22T20:18:28.439Z,17.57
2018-07-22T20:20:56.947Z,16.80
2018-07-22T20:23:27.506Z,17.40
2018-07-22T20:25:55.768Z,16.52
2018-07-22T20:28:23.807Z,16.60
2018-07-22T20:30:52.378Z,17.70
2018-07-22T20:33:20.762Z,18.05
2018-07-22T20:35:48.768Z,17.10
2018-07-22T20:38:16.863Z,18.00
2018-07-22T20:40:45.770Z,17.57
2018-07-22T20:43:17.872Z,18.67
2018-07-22T20:45:46.462Z,18.35
2018-07-22T20:48:14.862Z,17.27
2018-07-22T20:50:43.297Z,17.12
2018-07-22T20:53:11.726Z,17.42
2018-07-22T20:55:40.366Z,16.95
2018-07-22T20:58:08.664Z,16.65
2018-07-22T21:00:36.926Z,16.80
2018-07-22T21:03:05.477Z,16.65
2018-07-22T21:05:34.141Z,14.85
2018-07-22T21:08:02.521Z,16.48
2018-07-22T21:10:31.037Z,15.13
2018-07-22T21:13:10.513Z,14.95
2018-07-22T21:15:39.123Z,15.25
2018-07-22T21:18:07.514Z,14.93
2018-07-22T21:20:37.446Z,14.73
2018-07-22T21:23:05.542Z,16.23
2018-07-22T21:25:35.000Z,15.80
2018-07-22T21:28:03.472Z,15.20
2018-07-22T21:30:39.009Z,15.88
2018-07-22T21:33:07.410Z,15.30
2018-07-22T21:35:36.330Z,15.58
2018-07-22T21:38:04.753Z,15.00
2018-07-22T21:40:33.653Z,15.90
2018-07-22T21:43:01.948Z,15.30
2018-07-22T21:45:30.447Z,15.05
2018-07-22T21:48:04.474Z,15.25
2018-07-22T21:50:33.781Z,15.75
2018-07-22T21:53:02.295Z,16.40
2018-07-22T21:55:30.612Z,17.27
2018-07-22T21:57:59.185Z,17.20
2018-07-22T22:00:33.000Z,17.70
2018-07-22T22:03:02.125Z,16.77
2018-07-22T22:05:30.500Z,16.12
2018-07-22T22:08:05.445Z,15.40
2018-07-22T22:10:33.963Z,15.73
2018-07-22T22:13:02.379Z,15.83
2018-07-22T22:15:31.476Z,15.10
2018-07-22T22:18:01.613Z,15.13
2018-07-22T22:20:30.367Z,15.63
2018-07-22T22:22:58.516Z,15.80
2018-07-22T22:25:26.834Z,15.70
2018-07-22T22:27:55.100Z,16.57
2018-07-22T22:30:23.732Z,17.40
2018-07-22T22:32:52.163Z,16.10
2018-07-22T22:35:20.618Z,16.57
2018-07-22T22:37:48.918Z,15.53
2018-07-22T22:40:17.114Z,17.23
2018-07-22T22:42:46.165Z,17.37
2018-07-22T22:45:14.851Z,15.40
2018-07-22T22:47:43.239Z,16.60
2018-07-22T22:50:11.312Z,19.40
2018-07-22T22:52:39.526Z,18.35
2018-07-22T22:55:07.596Z,19.00
2018-07-22T22:57:35.881Z,19.10
2018-07-22T23:00:11.487Z,19.05
2018-07-22T23:02:39.767Z,19.42
2018-07-22T23:05:08.012Z,19.32
2018-07-22T23:07:36.486Z,19.17
2018-07-22T23:10:08.259Z,19.20
2018-07-22T23:12:36.430Z,19.45
2018-07-22T23:15:04.745Z,18.98
2018-07-22T23:17:33.570Z,19.52
2018-07-22T23:20:07.682Z,19.45
2018-07-22T23:22:35.769Z,19.30
2018-07-22T23:25:03.851Z,19.40
2018-07-22T23:27:32.263Z,19.62
2018-07-22T23:30:00.460Z,19.75
2018-07-22T23:32:28.867Z,19.50
2018-07-22T23:34:57.378Z,19.80
2018-07-22T23:37:25.741Z,19.00
2018-07-22T23:39:53.944Z,20.20
2018-07-22T23:42:22.219Z,19.57
2018-07-22T23:44:50.554Z,21.05
2018-07-22T23:47:20.065Z,20.05
2018-07-22T23:49:48.485Z,19.92
2018-07-22T23:52:16.855Z,20.25
2018-07-22T23:54:45.415Z,19.67
2018-07-22T23:57:13.775Z,19.23
2018-07-22T23:59:42.824Z,20.08
